createdAt,value
2022-10-23T00:01:40.343Z,100369.61
2022-10-23T00:04:22.382Z,100370.23
2022-10-23T00:06:50.086Z,100370.30
2022-10-23T00:09:20.366Z,100372.70
2022-10-23T00:11:48.596Z,100367.61
2022-10-23T00:14:20.758Z,100367.13
2022-10-23T00:16:47.972Z,100367.39
2022-10-23T00:19:15.357Z,100370.60
2022-10-23T00:21:42.779Z,100374.08
2022-10-23T00:26:42.606Z,100372.45
2022-10-23T00:29:11.238Z,100373.40
2022-10-23T00:31:39.082Z,100374.38
2022-10-23T00:34:08.835Z,100373.52
2022-10-23T00:36:38.239Z,100374.73
2022-10-23T00:39:06.793Z,100371.27
2022-10-23T00:41:34.362Z,100374.81
2022-10-23T00:44:11.040Z,100373.11
2022-10-23T00:46:39.803Z,100371.94
2022-10-23T00:49:07.696Z,100369.23
2022-10-23T00:51:44.639Z,100367.46
2022-10-23T00:54:29.936Z,100369.85
2022-10-23T00:57:00.779Z,100372.02
2022-10-23T00:59:29.231Z,100372.90
2022-10-23T01:01:56.918Z,100375.08
2022-10-23T01:04:25.367Z,100375.45
2022-10-23T01:07:20.323Z,100376.20
2022-10-23T01:09:49.402Z,100379.10
2022-10-23T01:12:22.993Z,100387.91
2022-10-23T01:15:08.899Z,100393.06
2022-10-23T01:17:47.127Z,100391.34
2022-10-23T01:20:38.102Z,100393.96
2022-10-23T01:23:23.807Z,100392.35
2022-10-23T01:26:10.407Z,100394.70
2022-10-23T01:29:26.589Z,100394.58
2022-10-23T01:32:15.796Z,100390.45
2022-10-23T01:34:49.746Z,100389.21
2022-10-23T01:37:22.327Z,100391.11
2022-10-23T01:39:54.166Z,100395.98
2022-10-23T01:42:28.614Z,100392.67
2022-10-23T01:45:18.571Z,100398.48
2022-10-23T01:47:46.469Z,100397.95
2022-10-23T01:50:18.004Z,100402.17
2022-10-23T01:52:47.728Z,100400.62
2022-10-23T01:55:17.216Z,100401.91
2022-10-23T01:57:45.899Z,100403.84
2022-10-23T02:00:16.130Z,100397.76
2022-10-23T02:02:53.583Z,100396.64
2022-10-23T02:05:26.110Z,100399.38
2022-10-23T02:07:55.508Z,100400.67
2022-10-23T02:10:29.220Z,100401.67
2022-10-23T02:13:35.012Z,100402.64
2022-10-23T02:16:40.224Z,100407.82
2022-10-23T02:19:27.158Z,100410.00
2022-10-23T02:22:29.409Z,100412.56
2022-10-23T02:25:07.905Z,100409.45
2022-10-23T02:27:44.606Z,100408.58
2022-10-23T02:30:14.369Z,100404.95
2022-10-23T02:32:46.561Z,100408.41
2022-10-23T02:35:14.371Z,100412.04
2022-10-23T02:37:41.816Z,100410.37
2022-10-23T02:40:10.525Z,100410.73
2022-10-23T02:43:01.582Z,100414.30
2022-10-23T02:45:36.967Z,100408.95
2022-10-23T02:48:19.430Z,100409.78
2022-10-23T02:50:59.592Z,100408.06
2022-10-23T02:53:37.382Z,100410.91
2022-10-23T02:56:24.028Z,100407.71
2022-10-23T02:59:04.997Z,100406.21
2022-10-23T03:02:01.023Z,100409.81
2022-10-23T03:04:29.068Z,100410.41
2022-10-23T03:06:56.405Z,100409.57
2022-10-23T03:09:23.868Z,100409.80
2022-10-23T03:11:51.949Z,100412.58
2022-10-23T03:14:20.008Z,100416.98
2022-10-23T03:16:47.168Z,100412.93
2022-10-23T03:19:14.639Z,100415.18
2022-10-23T03:21:41.871Z,100414.91
2022-10-23T03:24:09.219Z,100412.84
2022-10-23T03:26:42.326Z,100412.10
2022-10-23T03:29:10.303Z,100417.04
2022-10-23T03:31:43.257Z,100415.88
2022-10-23T03:34:11.870Z,100416.95
2022-10-23T03:36:40.623Z,100420.64
2022-10-23T03:39:09.322Z,100420.10
2022-10-23T03:41:36.685Z,100426.92
2022-10-23T03:46:37.435Z,100426.06
2022-10-23T03:49:06.218Z,100423.33
2022-10-23T03:51:33.757Z,100424.66
2022-10-23T03:54:01.334Z,100428.46
2022-10-23T03:56:29.078Z,100421.17
2022-10-23T03:58:56.223Z,100419.90
2022-10-23T04:01:25.019Z,100418.28
2022-10-23T04:03:53.801Z,100415.35
2022-10-23T04:06:21.476Z,100414.10
2022-10-23T04:08:49.342Z,100415.13
2022-10-23T04:11:17.952Z,100413.47
2022-10-23T04:13:46.364Z,100409.88
2022-10-23T04:16:14.333Z,100411.30
2022-10-23T04:18:41.981Z,100410.05
2022-10-23T04:21:11.633Z,100407.74
2022-10-23T04:23:39.920Z,100405.06
2022-10-23T04:26:12.905Z,100405.55
2022-10-23T04:28:40.368Z,100403.41
2022-10-23T04:31:07.825Z,100397.12
2022-10-23T04:33:35.063Z,100398.55
2022-10-23T04:36:03.455Z,100405.52
2022-10-23T04:38:30.637Z,100405.83
2022-10-23T04:40:57.760Z,100409.50
2022-10-23T04:43:25.403Z,100412.98
2022-10-23T04:45:52.575Z,100416.88
2022-10-23T04:48:24.324Z,100414.79
2022-10-23T04:51:14.554Z,100415.26
2022-10-23T04:54:11.039Z,100418.09
2022-10-23T04:56:56.841Z,100415.67
2022-10-23T04:59:24.724Z,100419.08
2022-10-23T05:01:51.865Z,100422.34
2022-10-23T05:04:19.215Z,100424.67
2022-10-23T05:07:12.715Z,100424.38
2022-10-23T05:09:50.590Z,100425.50
2022-10-23T05:12:41.425Z,100426.52
2022-10-23T05:15:08.883Z,100429.64
2022-10-23T05:17:38.112Z,100432.37
2022-10-23T05:20:08.428Z,100436.37
2022-10-23T05:22:37.841Z,100436.59
2022-10-23T05:25:08.291Z,100432.95
2022-10-23T05:27:35.767Z,100438.45
2022-10-23T05:30:08.338Z,100438.59
2022-10-23T05:32:37.694Z,100437.57
2022-10-23T05:35:12.133Z,100438.15
2022-10-23T05:37:42.030Z,100435.58
2022-10-23T05:40:13.971Z,100435.31
2022-10-23T05:42:43.596Z,100439.61
2022-10-23T05:45:13.857Z,100439.89
2022-10-23T05:48:10.838Z,100443.13
2022-10-23T05:51:18.281Z,100442.05
2022-10-23T05:53:50.191Z,100437.91
2022-10-23T05:56:46.578Z,100433.64
2022-10-23T05:59:23.270Z,100428.16
2022-10-23T06:01:56.955Z,100425.75
2022-10-23T06:04:53.619Z,100427.10
2022-10-23T06:07:35.134Z,100433.44
2022-10-23T06:10:06.503Z,100435.89
2022-10-23T06:12:36.148Z,100440.98
2022-10-23T06:15:05.303Z,100447.96
2022-10-23T06:17:51.531Z,100448.84
2022-10-23T06:20:19.106Z,100448.67
2022-10-23T06:22:53.402Z,100451.46
2022-10-23T06:25:43.822Z,100455.38
2022-10-23T06:28:11.262Z,100457.30
2022-10-23T06:30:40.157Z,100459.56
2022-10-23T06:33:07.636Z,100461.23
2022-10-23T06:35:34.959Z,100464.67
2022-10-23T06:38:02.736Z,100459.98
2022-10-23T06:40:38.385Z,100470.70
2022-10-23T06:43:09.021Z,100472.11
2022-10-23T06:45:53.269Z,100471.80
2022-10-23T06:48:56.349Z,100475.66
2022-10-23T06:51:30.076Z,100477.59
2022-10-23T06:53:58.124Z,100477.92
2022-10-23T06:56:44.226Z,100476.75
2022-10-23T06:59:11.876Z,100476.75
2022-10-23T07:01:39.213Z,100474.73
2022-10-23T07:04:06.687Z,100473.85
2022-10-23T07:06:34.164Z,100474.86
2022-10-23T07:09:01.605Z,100480.76
2022-10-23T07:11:57.842Z,100478.88
2022-10-23T07:14:32.676Z,100470.30
2022-10-23T07:17:00.940Z,100468.95
2022-10-23T07:19:28.698Z,100469.95
2022-10-23T07:21:58.402Z,100469.88
2022-10-23T07:24:58.031Z,100469.63
2022-10-23T07:27:28.669Z,100470.14
2022-10-23T07:29:58.166Z,100467.52
2022-10-23T07:32:29.147Z,100467.98
2022-10-23T07:35:34.370Z,100467.60
2022-10-23T07:38:07.565Z,100466.09
2022-10-23T07:40:38.692Z,100467.11
2022-10-23T07:43:07.153Z,100470.06
2022-10-23T07:45:35.134Z,100468.51
2022-10-23T07:48:07.750Z,100466.45
2022-10-23T07:50:54.218Z,100459.98
2022-10-23T07:53:26.055Z,100458.19
2022-10-23T07:55:57.476Z,100458.31
2022-10-23T07:58:33.472Z,100461.27
2022-10-23T08:01:19.970Z,100461.95
2022-10-23T08:03:47.645Z,100461.16
2022-10-23T08:06:15.810Z,100474.63
2022-10-23T08:11:20.759Z,100479.92
2022-10-23T08:13:50.390Z,100482.39
2022-10-23T08:16:17.813Z,100484.94
2022-10-23T08:19:04.507Z,100488.19
2022-10-23T08:21:32.177Z,100487.26
2022-10-23T08:24:00.661Z,100489.05
2022-10-23T08:26:32.240Z,100481.16
2022-10-23T08:29:00.210Z,100474.83
2022-10-23T08:31:28.759Z,100472.17
2022-10-23T08:34:21.529Z,100476.98
2022-10-23T08:36:50.109Z,100475.91
2022-10-23T08:39:18.197Z,100476.19
2022-10-23T08:42:18.992Z,100472.95
2022-10-23T08:44:55.273Z,100477.02
2022-10-23T08:47:31.667Z,100484.15
2022-10-23T08:50:42.731Z,100484.47
2022-10-23T08:53:13.074Z,100487.98
2022-10-23T08:55:57.828Z,100487.56
2022-10-23T08:58:35.528Z,100488.73
2022-10-23T09:01:28.529Z,100493.41
2022-10-23T09:03:55.912Z,100500.66
2022-10-23T09:06:35.067Z,100503.06
2022-10-23T09:09:58.635Z,100504.17
2022-10-23T09:12:29.727Z,100504.96
2022-10-23T09:15:18.978Z,100504.16
2022-10-23T09:17:47.740Z,100496.06
2022-10-23T09:20:45.093Z,100497.70
2022-10-23T09:23:21.870Z,100491.30
2022-10-23T09:25:55.850Z,100490.05
2022-10-23T09:28:25.937Z,100491.07
2022-10-23T09:30:54.002Z,100490.55
2022-10-23T09:33:24.801Z,100488.68
2022-10-23T09:36:00.571Z,100488.57
2022-10-23T09:38:33.827Z,100492.20
2022-10-23T09:41:07.090Z,100493.71
2022-10-23T09:43:34.787Z,100486.20
2022-10-23T09:46:06.453Z,100487.51
2022-10-23T09:48:35.342Z,100489.03
2022-10-23T09:51:17.604Z,100485.86
2022-10-23T09:53:53.778Z,100486.20
2022-10-23T09:56:24.929Z,100486.44
2022-10-23T09:59:04.137Z,100479.20
2022-10-23T10:01:36.550Z,100477.63
2022-10-23T10:04:40.860Z,100475.11
2022-10-23T10:07:22.853Z,100472.02
2022-10-23T10:09:50.535Z,100475.36
2022-10-23T10:12:59.350Z,100475.61
2022-10-23T10:15:48.149Z,100475.56
2022-10-23T10:18:20.462Z,100472.94
2022-10-23T10:21:18.234Z,100476.75
2022-10-23T10:24:05.781Z,100473.40
2022-10-23T10:27:15.764Z,100472.38
2022-10-23T10:29:58.140Z,100465.31
2022-10-23T10:32:32.481Z,100458.30
2022-10-23T10:35:20.108Z,100455.29
2022-10-23T10:38:10.477Z,100455.27
2022-10-23T10:40:52.014Z,100447.27
2022-10-23T10:43:42.467Z,100442.27
2022-10-23T10:46:25.054Z,100440.85
2022-10-23T10:48:58.668Z,100435.31
2022-10-23T10:52:15.685Z,100433.70
2022-10-23T10:54:46.037Z,100431.83
2022-10-23T10:57:43.397Z,100431.17
2022-10-23T11:00:15.622Z,100427.42
2022-10-23T11:02:49.712Z,100423.02
2022-10-23T11:05:37.670Z,100417.02
2022-10-23T11:08:14.088Z,100413.94
2022-10-23T11:10:46.973Z,100413.16
2022-10-23T11:13:40.876Z,100401.50
2022-10-23T11:16:15.676Z,100388.98
2022-10-23T11:18:44.933Z,100396.59
2022-10-23T11:21:18.046Z,100399.05
2022-10-23T11:24:00.668Z,100398.60
2022-10-23T11:26:31.699Z,100397.40
2022-10-23T11:29:47.187Z,100401.73
2022-10-23T11:32:43.088Z,100394.98
2022-10-23T11:35:17.475Z,100403.35
2022-10-23T11:37:46.051Z,100403.95
2022-10-23T11:40:22.665Z,100399.83
2022-10-23T11:42:52.200Z,100395.13
2022-10-23T11:45:32.088Z,100388.80
2022-10-23T11:48:05.218Z,100385.81
2022-10-23T11:50:52.255Z,100381.25
2022-10-23T11:53:40.226Z,100379.54
2022-10-23T11:56:15.683Z,100378.66
2022-10-23T11:58:54.440Z,100377.04
2022-10-23T12:01:33.679Z,100372.49
2022-10-23T12:04:25.399Z,100366.59
2022-10-23T12:07:03.587Z,100356.84
2022-10-23T12:09:55.123Z,100355.00
2022-10-23T12:12:29.535Z,100357.96
2022-10-23T12:15:16.493Z,100351.81
2022-10-23T12:17:47.649Z,100347.70
2022-10-23T12:20:42.613Z,100343.33
2022-10-23T12:23:48.410Z,100338.52
2022-10-23T12:26:41.612Z,100330.18
2022-10-23T12:29:25.039Z,100327.86
2022-10-23T12:31:55.779Z,100323.88
2022-10-23T12:34:50.467Z,100317.94
2022-10-23T12:37:38.210Z,100309.84
2022-10-23T12:40:10.299Z,100311.44
2022-10-23T12:42:38.352Z,100311.46
2022-10-23T12:45:18.950Z,100310.71
2022-10-23T12:47:48.919Z,100306.30
2022-10-23T12:50:25.499Z,100307.80
2022-10-23T12:53:03.442Z,100300.91
2022-10-23T12:58:33.949Z,100297.48
2022-10-23T13:01:06.091Z,100294.77
2022-10-23T13:03:34.797Z,100295.20
2022-10-23T13:06:05.315Z,100291.08
2022-10-23T13:08:41.478Z,100287.02
2022-10-23T13:11:32.486Z,100282.88
2022-10-23T13:14:03.049Z,100283.92
2022-10-23T13:16:30.207Z,100286.26
2022-10-23T13:18:58.656Z,100284.25
2022-10-23T13:21:29.125Z,100281.45
2022-10-23T13:23:57.347Z,100275.70
2022-10-23T13:26:36.735Z,100270.95
2022-10-23T13:29:09.557Z,100267.88
2022-10-23T13:31:38.051Z,100262.82
2022-10-23T13:34:14.274Z,100266.73
2022-10-23T13:37:17.427Z,100266.39
2022-10-23T13:39:44.656Z,100267.83
2022-10-23T13:42:14.680Z,100271.02
2022-10-23T13:44:43.773Z,100269.71
2022-10-23T13:47:14.091Z,100266.91
2022-10-23T13:49:42.269Z,100264.98
2022-10-23T13:52:12.599Z,100259.09
2022-10-23T13:54:40.058Z,100257.22
2022-10-23T13:57:13.716Z,100257.80
2022-10-23T13:59:41.603Z,100255.42
2022-10-23T14:02:22.112Z,100256.27
2022-10-23T14:04:51.521Z,100257.98
2022-10-23T14:07:19.051Z,100258.63
2022-10-23T14:09:46.629Z,100256.87
2022-10-23T14:12:14.575Z,100260.83
2022-10-23T14:14:41.940Z,100259.83
2022-10-23T14:17:09.379Z,100259.76
2022-10-23T14:19:40.551Z,100256.52
2022-10-23T14:22:08.599Z,100257.70
2022-10-23T14:24:36.559Z,100258.77
2022-10-23T14:27:03.929Z,100253.92
2022-10-23T14:29:31.786Z,100255.27
2022-10-23T14:31:59.554Z,100254.02
2022-10-23T14:34:27.623Z,100255.46
2022-10-23T14:37:07.963Z,100256.90
2022-10-23T14:39:36.473Z,100250.46
2022-10-23T14:42:05.391Z,100248.27
2022-10-23T14:44:33.272Z,100246.05
2022-10-23T14:47:01.709Z,100241.47
2022-10-23T14:49:29.570Z,100243.34
2022-10-23T14:51:58.048Z,100240.23
2022-10-23T14:54:27.158Z,100235.30
2022-10-23T14:56:55.316Z,100229.92
2022-10-23T14:59:22.778Z,100233.77
2022-10-23T15:01:51.641Z,100224.55
2022-10-23T15:04:20.142Z,100218.09
2022-10-23T15:06:49.629Z,100214.02
2022-10-23T15:09:23.693Z,100212.70
2022-10-23T15:11:55.258Z,100211.39
2022-10-23T15:14:25.858Z,100216.10
2022-10-23T15:16:54.814Z,100215.98
2022-10-23T15:19:22.892Z,100214.31
2022-10-23T15:21:51.167Z,100214.23
2022-10-23T15:24:21.285Z,100214.02
2022-10-23T15:26:49.260Z,100216.73
2022-10-23T15:29:17.116Z,100215.42
2022-10-23T15:31:50.481Z,100218.20
2022-10-23T15:34:23.703Z,100219.00
2022-10-23T15:36:52.159Z,100214.56
2022-10-23T15:39:22.810Z,100216.48
2022-10-23T15:41:55.800Z,100212.64
2022-10-23T15:44:26.154Z,100213.30
2022-10-23T15:46:59.403Z,100210.13
2022-10-23T15:49:32.330Z,100211.78
2022-10-23T15:52:01.375Z,100211.89
2022-10-23T15:54:32.768Z,100220.04
2022-10-23T15:57:01.971Z,100231.14
2022-10-23T15:59:30.750Z,100230.55
2022-10-23T16:01:59.742Z,100228.88
2022-10-23T16:04:33.488Z,100231.16
2022-10-23T16:07:01.492Z,100228.06
2022-10-23T16:09:29.790Z,100231.20
2022-10-23T16:11:58.160Z,100235.13
2022-10-23T16:14:25.613Z,100235.13
2022-10-23T16:16:54.306Z,100230.97
2022-10-23T16:19:27.789Z,100233.75
2022-10-23T16:21:56.621Z,100235.27
2022-10-23T16:24:24.846Z,100239.94
2022-10-23T16:26:57.204Z,100236.19
2022-10-23T16:29:27.120Z,100239.81
2022-10-23T16:31:56.824Z,100237.64
2022-10-23T16:34:26.184Z,100240.19
2022-10-23T16:36:54.132Z,100238.40
2022-10-23T16:39:33.115Z,100235.89
2022-10-23T16:42:20.167Z,100231.84
2022-10-23T16:45:12.316Z,100228.88
2022-10-23T16:47:42.853Z,100221.33
2022-10-23T16:50:11.632Z,100225.24
2022-10-23T16:52:40.531Z,100228.92
2022-10-23T16:55:09.644Z,100226.64
2022-10-23T16:57:37.685Z,100223.47
2022-10-23T17:00:06.843Z,100221.80
2022-10-23T17:02:35.596Z,100221.40
2022-10-23T17:05:04.363Z,100221.23
2022-10-23T17:07:34.587Z,100219.39
2022-10-23T17:10:03.755Z,100221.42
2022-10-23T17:12:36.015Z,100222.75
2022-10-23T17:15:06.029Z,100220.11
2022-10-23T17:24:04.460Z,100199.99
2022-10-23T17:26:34.730Z,100207.64
2022-10-23T17:29:05.563Z,100212.29
2022-10-23T17:31:35.919Z,100217.29
2022-10-23T17:34:07.346Z,100220.90
2022-10-23T17:36:38.384Z,100218.98
2022-10-23T17:39:08.586Z,100213.56
2022-10-23T17:41:38.392Z,100215.74
2022-10-23T17:46:55.895Z,100221.22
2022-10-23T17:49:30.979Z,100214.59
2022-10-23T17:52:01.246Z,100206.23
2022-10-23T17:55:31.325Z,100195.86
2022-10-23T17:58:00.706Z,100187.21
2022-10-23T18:00:33.439Z,100180.55
2022-10-23T18:03:04.996Z,100174.92
2022-10-23T18:08:06.622Z,100168.12
2022-10-23T18:10:37.505Z,100168.23
2022-10-23T18:13:05.740Z,100167.95
2022-10-23T18:15:37.395Z,100166.38
2022-10-23T18:18:11.598Z,100162.58
2022-10-23T18:20:41.551Z,100162.19
2022-10-23T18:23:12.457Z,100164.07
2022-10-23T18:26:00.386Z,100163.38
2022-10-23T18:28:32.110Z,100169.73
2022-10-23T18:31:03.237Z,100171.02
2022-10-23T18:33:41.552Z,100167.73
2022-10-23T18:36:30.076Z,100165.18
2022-10-23T18:39:02.638Z,100159.14
2022-10-23T18:41:37.252Z,100159.10
2022-10-23T18:44:10.284Z,100155.55
2022-10-23T18:46:40.814Z,100158.59
2022-10-23T18:49:09.983Z,100161.52
2022-10-23T18:51:38.839Z,100159.70
2022-10-23T18:54:11.225Z,100156.33
2022-10-23T18:56:40.887Z,100151.99
2022-10-23T18:59:22.720Z,100153.32
2022-10-23T19:01:51.525Z,100153.18
2022-10-23T19:04:20.824Z,100148.50
2022-10-23T19:06:50.369Z,100140.14
2022-10-23T19:09:24.728Z,100129.91
2022-10-23T19:11:53.840Z,100122.35
2022-10-23T19:14:29.609Z,100116.61
2022-10-23T19:17:32.988Z,100113.87
2022-10-23T19:20:08.794Z,100110.06
2022-10-23T19:22:37.935Z,100110.05
2022-10-23T19:25:16.111Z,100111.66
2022-10-23T19:27:45.956Z,100111.45
2022-10-23T19:30:19.312Z,100113.55
2022-10-23T19:32:50.733Z,100113.55
2022-10-23T19:35:22.925Z,100116.29
2022-10-23T19:37:51.365Z,100113.77
2022-10-23T19:40:20.719Z,100117.21
2022-10-23T19:42:51.393Z,100110.59
2022-10-23T19:45:19.765Z,100105.73
2022-10-23T19:47:48.276Z,100106.66
2022-10-23T19:50:18.456Z,100110.83
2022-10-23T19:52:50.143Z,100109.02
2022-10-23T19:55:27.254Z,100098.09
2022-10-23T19:57:58.232Z,100084.59
2022-10-23T20:00:30.435Z,100081.61
2022-10-23T20:03:10.013Z,100076.86
2022-10-23T20:05:38.522Z,100079.46
2022-10-23T20:08:06.697Z,100082.89
2022-10-23T20:10:34.667Z,100087.55
2022-10-23T20:13:18.669Z,100099.06
2022-10-23T20:15:48.012Z,100100.55
2022-10-23T20:18:15.287Z,100102.96
2022-10-23T20:20:43.666Z,100097.86
2022-10-23T20:23:13.025Z,100084.23
2022-10-23T20:25:41.026Z,100072.16
2022-10-23T20:28:11.536Z,100068.14
2022-10-23T20:30:44.446Z,100065.29
2022-10-23T20:33:12.837Z,100060.00
2022-10-23T20:35:59.580Z,100052.27
2022-10-23T20:38:28.724Z,100049.52
2022-10-23T20:40:59.214Z,100042.34
2022-10-23T20:43:30.608Z,100037.91
2022-10-23T20:46:08.143Z,100035.49
2022-10-23T20:48:44.063Z,100038.60
2022-10-23T20:51:14.467Z,100046.17
2022-10-23T20:53:44.390Z,100048.60
2022-10-23T20:56:33.803Z,100047.84
2022-10-23T20:59:05.360Z,100049.64
2022-10-23T21:01:37.414Z,100049.52
2022-10-23T21:04:05.265Z,100049.36
2022-10-23T21:06:51.562Z,100051.92
2022-10-23T21:09:25.344Z,100040.98
2022-10-23T21:11:52.923Z,100037.38
2022-10-23T21:14:20.559Z,100034.16
2022-10-23T21:16:48.127Z,100035.20
2022-10-23T21:22:14.466Z,100051.80
2022-10-23T21:24:44.692Z,100048.92
2022-10-23T21:27:20.886Z,100043.23
2022-10-23T21:29:51.850Z,100036.84
2022-10-23T21:32:21.533Z,100026.88
2022-10-23T21:34:58.872Z,100024.50
2022-10-23T21:37:32.031Z,100024.02
2022-10-23T21:40:14.145Z,100014.45
2022-10-23T21:42:44.498Z,100018.70
2022-10-23T21:45:16.697Z,100024.68
2022-10-23T21:47:47.440Z,100020.98
2022-10-23T21:50:18.865Z,100009.66
2022-10-23T21:52:54.322Z,100009.00
2022-10-23T21:55:30.147Z,100005.77
2022-10-23T21:58:01.466Z,100006.45
2022-10-23T22:00:32.912Z,99999.27
2022-10-23T22:03:03.085Z,99991.09
2022-10-23T22:05:31.194Z,99977.73
2022-10-23T22:08:02.267Z,99966.12
2022-10-23T22:10:33.827Z,99972.21
2022-10-23T22:13:01.053Z,99976.34
2022-10-23T22:15:28.155Z,99976.97
2022-10-23T22:17:55.276Z,99979.19
2022-10-23T22:20:22.640Z,99972.95
2022-10-23T22:22:50.109Z,99963.27
2022-10-23T22:25:17.408Z,99960.52
2022-10-23T22:27:44.877Z,99966.27
2022-10-23T22:30:12.754Z,99962.02
2022-10-23T22:32:40.260Z,99955.28
2022-10-23T22:35:08.188Z,99946.30
2022-10-23T22:37:35.268Z,99935.48
2022-10-23T22:40:02.865Z,99937.80
2022-10-23T22:42:30.397Z,99942.13
2022-10-23T22:45:01.637Z,99946.89
2022-10-23T22:47:33.324Z,99950.55
2022-10-23T22:50:02.559Z,99950.03
2022-10-23T22:52:31.577Z,99959.59
2022-10-23T22:55:01.406Z,99962.03
2022-10-23T22:57:28.758Z,99965.27
2022-10-23T22:59:55.971Z,99966.38
2022-10-23T23:02:23.848Z,99961.33
2022-10-23T23:04:51.221Z,99961.56
2022-10-23T23:07:18.332Z,99963.65
2022-10-23T23:09:45.812Z,99965.83
2022-10-23T23:12:15.715Z,99962.84
2022-10-23T23:14:43.985Z,99960.01
2022-10-23T23:17:12.097Z,99962.09
2022-10-23T23:19:40.119Z,99965.90
2022-10-23T23:22:07.489Z,99973.55
2022-10-23T23:24:35.360Z,99978.65
2022-10-23T23:27:07.131Z,99979.13
2022-10-23T23:29:34.737Z,99974.59
2022-10-23T23:32:07.746Z,99967.41
2022-10-23T23:34:36.535Z,99967.17
2022-10-23T23:37:05.705Z,99964.92
2022-10-23T23:39:35.700Z,99967.67
2022-10-23T23:42:08.540Z,99969.20
2022-10-23T23:44:50.230Z,99976.13
2022-10-23T23:47:32.438Z,99976.73
2022-10-23T23:50:04.640Z,99978.02
2022-10-23T23:52:33.623Z,99970.37
2022-10-23T23:55:07.438Z,99968.16
2022-10-23T23:57:38.319Z,99978.30
